Time;durP1;ratioP1;P1;durP2;ratioP2;P2;SDS_P1;SDS_P2;PMS_P1;PMS_P2;Temp;Humidity;BMP_temperature;BMP_pressure;BME280_temperature;BME280_humidity;BME280_pressure;Samples;Min_cycle;Max_cycle;Signal;HPM_P1;HPM_P2
2020/09/02 00:00:09;;;;;;;1;0.7;;;;;;;14.2;86.97949;937.4236;;;;
2020/09/02 00:02:33;;;;;;;0.4;0.4;;;;;;;14.28;86.92676;937.4442;;;;
2020/09/02 00:04:58;;;;;;;0.6;0.4;;;;;;;14.29;86.85938;937.4426;;;;
2020/09/02 00:07:23;;;;;;;0.9;0.7;;;;;;;14.3;86.38867;937.4473;;;;
2020/09/02 00:09:49;;;;;;;1.4;0.7;;;;;;;14.22;86.53613;937.4583;;;;
2020/09/02 00:12:13;;;;;;;0.5;0.5;;;;;;;14.23;86.68555;937.459;;;;
2020/09/02 00:14:39;;;;;;;0.8;0.6;;;;;;;14.31;86.41406;937.4641;;;;
2020/09/02 00:17:04;;;;;;;1.1;0.7;;;;;;;14.34;86.33984;937.4286;;;;
2020/09/02 00:19:29;;;;;;;0.5;0.5;;;;;;;14.37;86.14941;937.4917;;;;
2020/09/02 00:21:54;;;;;;;0.9;0.6;;;;;;;14.38;86.00195;937.4324;;;;
2020/09/02 00:24:22;;;;;;;0.7;0.5;;;;;;;14.37;86.16113;937.5134;;;;
2020/09/02 00:26:47;;;;;;;0.7;0.5;;;;;;;14.3;86.42383;937.5146;;;;
2020/09/02 00:29:14;;;;;;;0.6;0.4;;;;;;;14.26;86.75;937.486;;;;
2020/09/02 00:31:39;;;;;;;1.4;0.5;;;;;;;14.27;86.72949;937.4755;;;;
2020/09/02 00:34:05;;;;;;;0.6;0.5;;;;;;;14.28;86.71973;937.4723;;;;
2020/09/02 00:36:30;;;;;;;1;0.7;;;;;;;14.3;86.84961;937.4938;;;;
2020/09/02 00:39:01;;;;;;;0.9;0.4;;;;;;;14.04;87.31738;937.4174;;;;
2020/09/02 00:41:29;;;;;;;0.5;0.4;;;;;;;14;87.84863;937.4677;;;;
2020/09/02 00:43:54;;;;;;;0.9;0.6;;;;;;;13.9;88.27734;937.4777;;;;
2020/09/02 00:46:23;;;;;;;0.8;0.7;;;;;;;13.92;88.25879;937.5193;;;;
2020/09/02 00:48:48;;;;;;;1.1;0.5;;;;;;;13.95;88.41309;937.5031;;;;
2020/09/02 00:51:14;;;;;;;0.6;0.5;;;;;;;14.03;88.42969;937.4558;;;;
2020/09/02 00:53:39;;;;;;;0.6;0.4;;;;;;;14.04;88.0752;937.5742;;;;
2020/09/02 00:56:09;;;;;;;0.4;0.4;;;;;;;13.99;87.74414;937.5422;;;;
2020/09/02 00:58:59;;;;;;;0.9;0.7;;;;;;;13.78;88.39063;937.4972;;;;
2020/09/02 01:01:48;;;;;;;0.9;0.4;;;;;;;13.67;89.2998;937.5425;;;;
2020/09/02 01:03:23;;;;;;;0.8;0.5;;;;;;;13.64;89.375;937.4425;;;;
2020/09/02 01:05:53;;;;;;;0.8;0.4;;;;;;;13.74;89.37207;937.4726;;;;
2020/09/02 01:08:18;;;;;;;0.5;0.5;;;;;;;13.91;89.09668;937.4497;;;;
2020/09/02 01:10:47;;;;;;;0.6;0.5;;;;;;;14;88.24023;937.43;;;;
2020/09/02 01:13:12;;;;;;;0.5;0.5;;;;;;;13.96;88.16211;937.3718;;;;
2020/09/02 01:15:44;;;;;;;1.4;0.9;;;;;;;13.89;88.26465;937.3513;;;;
2020/09/02 01:18:13;;;;;;;0.7;0.5;;;;;;;13.73;88.64551;937.4126;;;;
2020/09/02 01:20:39;;;;;;;0.4;0.3;;;;;;;13.8;88.87695;937.397;;;;
2020/09/02 01:23:05;;;;;;;1.2;0.7;;;;;;;13.94;89.04688;937.3775;;;;
2020/09/02 01:25:30;;;;;;;0.6;0.3;;;;;;;14;88.68945;937.3172;;;;
2020/09/02 01:27:57;;;;;;;1.7;0.6;;;;;;;14.03;88.16504;937.3709;;;;
2020/09/02 01:30:22;;;;;;;1.3;0.7;;;;;;;14.08;87.93457;937.3611;;;;
2020/09/02 01:32:47;;;;;;;0.6;0.4;;;;;;;14.13;87.62109;937.3767;;;;
2020/09/02 01:35:12;;;;;;;0.5;0.5;;;;;;;14.13;87.55176;937.3328;;;;
2020/09/02 01:37:37;;;;;;;1;0.5;;;;;;;14.07;87.74805;937.3948;;;;
2020/09/02 01:40:06;;;;;;;0.4;0.4;;;;;;;14.11;87.66211;937.3665;;;;
2020/09/02 01:42:31;;;;;;;0.8;0.6;;;;;;;14.1;87.88086;937.3881;;;;
2020/09/02 01:44:57;;;;;;;0.5;0.5;;;;;;;14.11;88.13574;937.3665;;;;
2020/09/02 01:47:22;;;;;;;1.1;0.6;;;;;;;14.15;87.91504;937.3918;;;;
2020/09/02 01:49:47;;;;;;;2.2;0.6;;;;;;;14.23;87.60645;937.3589;;;;
2020/09/02 01:52:13;;;;;;;1.2;0.7;;;;;;;14.24;87.41309;937.4221;;;;
2020/09/02 01:54:38;;;;;;;0.5;0.4;;;;;;;14.29;87.28516;937.3921;;;;
2020/09/02 01:57:05;;;;;;;1.9;0.5;;;;;;;14.28;87.00684;937.3522;;;;
2020/09/02 01:59:30;;;;;;;0.5;0.4;;;;;;;14.25;86.95605;937.3452;;;;
2020/09/02 02:01:56;;;;;;;0.4;0.3;;;;;;;14.32;86.81836;937.3198;;;;
2020/09/02 02:04:21;;;;;;;0.7;0.5;;;;;;;14.36;86.9541;937.3308;;;;
2020/09/02 02:06:50;;;;;;;0.9;0.5;;;;;;;14.06;87.79102;937.2531;;;;
2020/09/02 02:09:15;;;;;;;1.7;0.6;;;;;;;14.17;87.58398;937.3093;;;;
2020/09/02 02:11:41;;;;;;;0.5;0.3;;;;;;;14.1;87.38574;937.2856;;;;
2020/09/02 02:14:08;;;;;;;0.7;0.6;;;;;;;14.03;87.72754;937.3405;;;;
2020/09/02 02:16:33;;;;;;;1.1;0.6;;;;;;;14.05;87.49023;937.3396;;;;
2020/09/02 02:19:03;;;;;;;0.4;0.4;;;;;;;14.05;87.31738;937.31;;;;
2020/09/02 02:21:28;;;;;;;0.5;0.4;;;;;;;14.01;87.19531;937.3283;;;;
2020/09/02 02:23:56;;;;;;;2.1;0.6;;;;;;;13.96;87.19727;937.3253;;;;
2020/09/02 02:26:21;;;;;;;0.7;0.5;;;;;;;13.96;86.9209;937.3638;;;;
2020/09/02 02:28:48;;;;;;;1.2;0.6;;;;;;;13.86;86.81934;937.3851;;;;
2020/09/02 02:31:14;;;;;;;1;0.7;;;;;;;13.75;87.26855;937.3845;;;;
2020/09/02 02:33:41;;;;;;;1.2;0.5;;;;;;;13.7;86.82129;937.3999;;;;
2020/09/02 02:36:06;;;;;;;1.3;0.5;;;;;;;13.65;86.89258;937.4113;;;;
2020/09/02 02:38:33;;;;;;;0.8;0.5;;;;;;;13.49;88.19336;937.41;;;;
2020/09/02 02:40:59;;;;;;;0.8;0.4;;;;;;;13.52;88.76465;937.4314;;;;
2020/09/02 02:43:24;;;;;;;1.1;0.4;;;;;;;13.59;88.58203;937.3976;;;;
2020/09/02 02:45:52;;;;;;;0.5;0.4;;;;;;;13.69;88.23535;937.4264;;;;
2020/09/02 02:48:17;;;;;;;1.1;0.7;;;;;;;13.66;88.2168;937.5338;;;;
2020/09/02 02:50:43;;;;;;;0.8;0.6;;;;;;;13.69;88.09766;937.5248;;;;
2020/09/02 02:53:09;;;;;;;1.1;0.5;;;;;;;13.74;87.93457;937.507;;;;
2020/09/02 02:55:35;;;;;;;2;0.4;;;;;;;13.67;88.51758;937.552;;;;
2020/09/02 02:58:00;;;;;;;0.5;0.4;;;;;;;13.77;88.29785;937.5236;;;;
2020/09/02 03:00:33;;;;;;;0.5;0.5;;;;;;;13.72;88.52832;937.575;;;;
2020/09/02 03:02:59;;;;;;;1.1;0.6;;;;;;;13.81;88.60254;937.5947;;;;
2020/09/02 03:05:24;;;;;;;0.6;0.4;;;;;;;13.88;88.30859;937.6052;;;;
2020/09/02 03:07:52;;;;;;;0.9;0.5;;;;;;;13.96;88.08203;937.5952;;;;
2020/09/02 03:10:17;;;;;;;0.5;0.3;;;;;;;14.02;87.81836;937.6192;;;;
2020/09/02 03:12:43;;;;;;;0.5;0.4;;;;;;;14.1;87.39746;937.6661;;;;
2020/09/02 03:15:08;;;;;;;0.4;0.4;;;;;;;14;87.56152;937.7238;;;;
2020/09/02 03:17:36;;;;;;;0.2;0.2;;;;;;;14;87.43457;937.7014;;;;
2020/09/02 03:20:01;;;;;;;0.7;0.4;;;;;;;13.97;87.24512;937.7087;;;;
2020/09/02 03:22:28;;;;;;;1.4;0.3;;;;;;;13.81;88.29395;937.67;;;;
2020/09/02 03:24:53;;;;;;;0.5;0.4;;;;;;;13.83;88.40137;937.7567;;;;
2020/09/02 03:27:22;;;;;;;0.4;0.3;;;;;;;13.68;89.37109;937.7392;;;;
2020/09/02 03:29:47;;;;;;;0.7;0.4;;;;;;;13.66;90.0459;937.7194;;;;
2020/09/02 03:32:14;;;;;;;0.6;0.5;;;;;;;13.8;89.20117;937.722;;;;
2020/09/02 03:34:39;;;;;;;0.9;0.4;;;;;;;13.83;88.90723;937.755;;;;
2020/09/02 03:37:08;;;;;;;0.4;0.4;;;;;;;13.65;89.81348;937.7258;;;;
2020/09/02 03:39:33;;;;;;;0.6;0.5;;;;;;;13.59;90.11133;937.7344;;;;
2020/09/02 03:42:10;;;;;;;0.6;0.5;;;;;;;13.55;90.16113;937.7481;;;;
2020/09/02 03:44:38;;;;;;;1.4;0.5;;;;;;;13.6;90.27539;937.696;;;;
2020/09/02 03:47:03;;;;;;;0.7;0.4;;;;;;;13.72;89.83984;937.6935;;;;
2020/09/02 03:49:33;;;;;;;0.5;0.4;;;;;;;13.93;88.88184;937.7098;;;;
2020/09/02 03:51:58;;;;;;;0.7;0.5;;;;;;;13.87;88.66211;937.6892;;;;
2020/09/02 03:54:23;;;;;;;1;0.6;;;;;;;13.84;89.09375;937.6958;;;;
2020/09/02 03:56:50;;;;;;;1.2;0.4;;;;;;;13.79;89.12988;937.6677;;;;
2020/09/02 03:59:15;;;;;;;0.3;0.3;;;;;;;13.75;88.99414;937.7134;;;;
2020/09/02 04:02:27;;;;;;;0.9;0.6;;;;;;;13.9;88.66699;937.7034;;;;
2020/09/02 04:04:52;;;;;;;5.4;0.5;;;;;;;13.79;88.45117;937.634;;;;
2020/09/02 04:07:20;;;;;;;1.1;0.6;;;;;;;13.82;88.7334;937.6902;;;;
2020/09/02 04:09:45;;;;;;;0.9;0.4;;;;;;;13.84;88.66992;937.6902;;;;
2020/09/02 04:12:13;;;;;;;0.6;0.4;;;;;;;13.95;88.39063;937.652;;;;
2020/09/02 04:14:37;;;;;;;0.3;0.3;;;;;;;14.05;87.74316;937.6696;;;;
2020/09/02 04:17:05;;;;;;;1.6;0.3;;;;;;;14.13;87.0127;937.5978;;;;
2020/09/02 04:19:30;;;;;;;0.4;0.4;;;;;;;14.21;86.58984;937.635;;;;
2020/09/02 04:21:56;;;;;;;1.7;0.7;;;;;;;14.26;86.49707;937.6334;;;;
2020/09/02 04:24:21;;;;;;;0.5;0.4;;;;;;;14.28;86.21289;937.6461;;;;
2020/09/02 04:26:46;;;;;;;0.4;0.3;;;;;;;14.26;86.05957;937.6694;;;;
2020/09/02 04:29:15;;;;;;;1.1;0.7;;;;;;;14.22;86.41895;937.7378;;;;
2020/09/02 04:31:45;;;;;;;0.7;0.5;;;;;;;14.08;87.1748;937.7094;;;;
2020/09/02 04:34:10;;;;;;;1.6;0.5;;;;;;;13.96;87.87598;937.7441;;;;
2020/09/02 04:36:40;;;;;;;0.3;0.3;;;;;;;13.9;88.62109;937.7651;;;;
2020/09/02 04:39:07;;;;;;;0.7;0.6;;;;;;;14.02;87.99121;937.7625;;;;
2020/09/02 04:41:41;;;;;;;0.5;0.4;;;;;;;14.12;87.58496;937.8028;;;;
2020/09/02 04:44:08;;;;;;;0.5;0.5;;;;;;;14.19;87.28711;937.8057;;;;
2020/09/02 04:46:39;;;;;;;0.9;0.6;;;;;;;14.13;88.01465;937.822;;;;
2020/09/02 04:49:04;;;;;;;1;0.7;;;;;;;14.19;87.63379;937.8417;;;;
2020/09/02 04:51:29;;;;;;;0.3;0.3;;;;;;;14.18;87.74512;937.7753;;;;
2020/09/02 04:53:56;;;;;;;0.5;0.4;;;;;;;14.23;87.37598;937.8002;;;;
2020/09/02 04:56:21;;;;;;;0.9;0.4;;;;;;;14.35;86.91797;937.8203;;;;
2020/09/02 04:58:46;;;;;;;1;0.5;;;;;;;14.42;86.80371;937.8026;;;;
2020/09/02 05:01:14;;;;;;;3.4;0.5;;;;;;;14.37;86.31152;937.8122;;;;
2020/09/02 05:03:40;;;;;;;0.5;0.5;;;;;;;14.33;86.14063;937.7804;;;;
2020/09/02 05:06:05;;;;;;;0.7;0.5;;;;;;;14.36;86.35352;937.8226;;;;
2020/09/02 05:08:31;;;;;;;0.7;0.4;;;;;;;14.16;87.46777;937.8267;;;;
2020/09/02 05:11:01;;;;;;;1.6;0.6;;;;;;;14.25;87.4834;937.865;;;;
2020/09/02 05:13:27;;;;;;;0.2;0.2;;;;;;;14.36;87.00977;937.8195;;;;
2020/09/02 05:15:55;;;;;;;2.5;0.6;;;;;;;14.46;86.70703;937.8964;;;;
2020/09/02 05:18:20;;;;;;;0.6;0.4;;;;;;;14.51;86.11914;937.9193;;;;
2020/09/02 05:20:48;;;;;;;5.2;0.6;;;;;;;14.58;85.48828;937.9501;;;;
2020/09/02 05:23:12;;;;;;;0.9;0.4;;;;;;;14.62;85.17383;937.8908;;;;
2020/09/02 05:25:40;;;;;;;0.7;0.5;;;;;;;14.64;84.99316;937.9324;;;;
2020/09/02 05:28:05;;;;;;;0.7;0.6;;;;;;;14.63;85.30273;937.9653;;;;
2020/09/02 05:30:36;;;;;;;1.6;0.7;;;;;;;14.64;85.30469;938.0149;;;;
2020/09/02 05:33:03;;;;;;;0.3;0.3;;;;;;;14.71;84.7168;938.0594;;;;
2020/09/02 05:35:29;;;;;;;0.5;0.5;;;;;;;14.74;84.72266;938.0744;;;;
2020/09/02 05:37:56;;;;;;;1.6;0.5;;;;;;;14.7;84.6709;938.0714;;;;
2020/09/02 05:40:21;;;;;;;0.6;0.5;;;;;;;14.56;85.24219;938.0897;;;;
2020/09/02 05:42:47;;;;;;;0.7;0.6;;;;;;;14.64;85.03906;938.1375;;;;
2020/09/02 05:45:15;;;;;;;0.8;0.6;;;;;;;14.58;85.72949;938.132;;;;
2020/09/02 05:47:40;;;;;;;1.7;0.6;;;;;;;14.4;86.70801;938.0996;;;;
2020/09/02 05:50:08;;;;;;;0.5;0.4;;;;;;;14.35;86.97559;938.1479;;;;
2020/09/02 05:52:33;;;;;;;2.3;0.5;;;;;;;14.38;87.38379;938.1389;;;;
2020/09/02 05:55:01;;;;;;;0.6;0.4;;;;;;;14.19;88.15234;938.1701;;;;
2020/09/02 05:57:26;;;;;;;1;0.8;;;;;;;14.09;89.12012;938.1417;;;;
2020/09/02 05:59:53;;;;;;;1.3;0.6;;;;;;;14.24;88.63379;938.1476;;;;
2020/09/02 06:02:23;;;;;;;0.9;0.4;;;;;;;14.25;88.5791;938.1092;;;;
2020/09/02 06:04:48;;;;;;;2.4;0.8;;;;;;;14.21;88.62793;938.1203;;;;
2020/09/02 06:07:16;;;;;;;0.8;0.6;;;;;;;14.05;89.33105;938.1387;;;;
2020/09/02 06:09:41;;;;;;;1.2;0.6;;;;;;;14.13;89.45215;938.1567;;;;
2020/09/02 06:12:06;;;;;;;2.7;0.6;;;;;;;14.26;88.68457;938.162;;;;
2020/09/02 06:14:34;;;;;;;0.8;0.6;;;;;;;14.14;88.82227;938.1742;;;;
2020/09/02 06:16:59;;;;;;;0.6;0.5;;;;;;;14.2;88.5918;938.154;;;;
2020/09/02 06:19:29;;;;;;;0.9;0.6;;;;;;;14.48;87.55371;938.115;;;;
2020/09/02 06:21:54;;;;;;;0.7;0.4;;;;;;;14.55;86.13965;938.1105;;;;
2020/09/02 06:24:19;;;;;;;0.8;0.5;;;;;;;14.56;86.5332;938.1658;;;;
2020/09/02 06:26:45;;;;;;;0.4;0.4;;;;;;;14.78;85.63086;938.0974;;;;
2020/09/02 06:29:10;;;;;;;0.5;0.5;;;;;;;15.01;84.75391;938.1119;;;;
2020/09/02 06:31:35;;;;;;;0.9;0.5;;;;;;;;;;;;;
2020/09/02 06:34:00;;;;;;;6.3;0.7;;;;;;;;;;;;;
2020/09/02 06:36:25;;;;;;;0.4;0.4;;;;;;;;;;;;;
2020/09/02 06:38:50;;;;;;;0.6;0.5;;;;;;;;;;;;;
2020/09/02 06:41:16;;;;;;;1.2;0.6;;;;;;;;;;;;;
2020/09/02 06:43:41;;;;;;;0.5;0.4;;;;;;;;;;;;;
2020/09/02 06:46:07;;;;;;;0.8;0.5;;;;;;;;;;;;;
2020/09/02 06:48:32;;;;;;;0.4;0.4;;;;;;;;;;;;;
2020/09/02 06:50:59;;;;;;;0.3;0.3;;;;;;;;;;;;;
2020/09/02 06:53:24;;;;;;;0.8;0.6;;;;;;;;;;;;;
2020/09/02 06:55:49;;;;;;;0.6;0.5;;;;;;;;;;;;;
2020/09/02 06:58:14;;;;;;;0.8;0.4;;;;;;;;;;;;;
2020/09/02 07:00:39;;;;;;;0.8;0.6;;;;;;;;;;;;;
2020/09/02 07:03:04;;;;;;;1;0.6;;;;;;;;;;;;;
2020/09/02 07:05:29;;;;;;;1.1;0.6;;;;;;;;;;;;;
2020/09/02 07:07:56;;;;;;;0.9;0.6;;;;;;;;;;;;;
2020/09/02 07:10:20;;;;;;;0.6;0.5;;;;;;;;;;;;;
2020/09/02 07:12:47;;;;;;;1.4;0.7;;;;;;;;;;;;;
2020/09/02 07:15:12;;;;;;;0.9;0.6;;;;;;;;;;;;;
2020/09/02 07:17:38;;;;;;;1.5;0.6;;;;;;;;;;;;;
2020/09/02 07:20:03;;;;;;;1.4;0.7;;;;;;;;;;;;;
2020/09/02 07:22:28;;;;;;;0.5;0.5;;;;;;;;;;;;;
2020/09/02 07:24:54;;;;;;;0.6;0.4;;;;;;;;;;;;;
2020/09/02 07:27:20;;;;;;;0.6;0.4;;;;;;;;;;;;;
2020/09/02 07:32:10;;;;;;;0.8;0.4;;;;;;;;;;;;;
2020/09/02 07:34:35;;;;;;;0.7;0.5;;;;;;;;;;;;;
2020/09/02 07:37:01;;;;;;;0.8;0.6;;;;;;;;;;;;;
2020/09/02 07:39:28;;;;;;;0.7;0.4;;;;;;;;;;;;;
2020/09/02 07:41:52;;;;;;;0.4;0.3;;;;;;;;;;;;;
2020/09/02 07:44:17;;;;;;;1.1;0.7;;;;;;;;;;;;;
2020/09/02 07:46:42;;;;;;;0.5;0.5;;;;;;;;;;;;;
2020/09/02 07:49:07;;;;;;;0.4;0.3;;;;;;;;;;;;;
2020/09/02 07:51:32;;;;;;;0.4;0.4;;;;;;;;;;;;;
2020/09/02 07:53:57;;;;;;;0.8;0.5;;;;;;;;;;;;;
2020/09/02 07:56:25;;;;;;;0.7;0.5;;;;;;;;;;;;;
2020/09/02 07:58:48;;;;;;;0.5;0.5;;;;;;;;;;;;;
2020/09/02 08:01:13;;;;;;;0.9;0.7;;;;;;;;;;;;;
2020/09/02 08:03:39;;;;;;;0.5;0.4;;;;;;;;;;;;;
2020/09/02 08:06:04;;;;;;;2;0.6;;;;;;;;;;;;;
2020/09/02 08:08:29;;;;;;;1.2;0.7;;;;;;;;;;;;;
2020/09/02 08:10:55;;;;;;;4.6;0.6;;;;;;;;;;;;;
2020/09/02 08:13:21;;;;;;;1;0.6;;;;;;;;;;;;;
2020/09/02 08:15:46;;;;;;;0.2;0.2;;;;;;;;;;;;;
2020/09/02 08:18:11;;;;;;;1.7;0.8;;;;;;;;;;;;;
2020/09/02 08:20:36;;;;;;;0.8;0.2;;;;;;;;;;;;;
2020/09/02 08:23:01;;;;;;;0.8;0.3;;;;;;;;;;;;;
2020/09/02 08:25:26;;;;;;;0.2;0.2;;;;;;;;;;;;;
2020/09/02 08:27:51;;;;;;;0.3;0.3;;;;;;;;;;;;;
2020/09/02 08:30:20;;;;;;;0.4;0.2;;;;;;;;;;;;;
2020/09/02 08:32:45;;;;;;;1.6;0.4;;;;;;;;;;;;;
2020/09/02 08:35:12;;;;;;;0.2;0.2;;;;;;;;;;;;;
2020/09/02 08:37:38;;;;;;;0.4;0.3;;;;;;;;;;;;;
2020/09/02 08:40:03;;;;;;;0.1;0.1;;;;;;;;;;;;;
2020/09/02 08:42:28;;;;;;;0.9;0.5;;;;;;;;;;;;;
2020/09/02 08:44:59;;;;;;;0.1;0.1;;;;;;;;;;;;;
2020/09/02 08:47:19;;;;;;;7.2;0.2;;;;;;;;;;;;;
2020/09/02 08:49:44;;;;;;;0.2;0.1;;;;;;;;;;;;;
2020/09/02 08:52:10;;;;;;;0.5;0.3;;;;;;;;;;;;;
2020/09/02 08:54:35;;;;;;;0.3;0.2;;;;;;;;;;;;;
2020/09/02 08:57:00;;;;;;;1.1;0.3;;;;;;;;;;;;;
2020/09/02 08:59:26;;;;;;;0.3;0.2;;;;;;;;;;;;;
2020/09/02 09:01:51;;;;;;;0.2;0.2;;;;;;;;;;;;;
2020/09/02 09:04:27;;;;;;;0.1;0.1;;;;;;;;;;;;;
2020/09/02 09:06:42;;;;;;;0.4;0.2;;;;;;;;;;;;;
2020/09/02 09:09:07;;;;;;;0.2;0.2;;;;;;;;;;;;;
2020/09/02 09:11:36;;;;;;;0.4;0.2;;;;;;;;;;;;;
2020/09/02 09:14:02;;;;;;;0.3;0.3;;;;;;;;;;;;;
2020/09/02 09:16:27;;;;;;;0.1;0.1;;;;;;;;;;;;;
2020/09/02 09:18:52;;;;;;;0.2;0.2;;;;;;;;;;;;;
2020/09/02 09:21:17;;;;;;;0.1;0.1;;;;;;;;;;;;;
2020/09/02 09:23:46;;;;;;;0.4;0.2;;;;;;;;;;;;;
2020/09/02 09:26:08;;;;;;;0.4;0.2;;;;;;;;;;;;;
2020/09/02 09:28:33;;;;;;;0.3;0.1;;;;;;;;;;;;;
2020/09/02 09:30:58;;;;;;;0.7;0.4;;;;;;;;;;;;;
2020/09/02 09:33:24;;;;;;;0.2;0.2;;;;;;;;;;;;;
2020/09/02 09:35:51;;;;;;;1.4;0.3;;;;;;;;;;;;;
2020/09/02 09:38:16;;;;;;;0.4;0.2;;;;;;;;;;;;;
2020/09/02 09:40:41;;;;;;;0.4;0.2;;;;;;;;;;;;;
2020/09/02 09:43:06;;;;;;;1.5;0.7;;;;;;;;;;;;;
2020/09/02 09:46:09;;;;;;;0.5;0.3;;;;;;;21.46;59.79395;938.2955;;;;
2020/09/02 09:48:33;;;;;;;0.5;0.4;;;;;;;21.41;58.13672;938.2547;;;;
2020/09/02 09:51:04;;;;;;;0.4;0.3;;;;;;;21.39;59.26953;938.291;;;;
2020/09/02 09:53:27;;;;;;;0.8;0.3;;;;;;;21.2;59.04688;938.2736;;;;
2020/09/02 09:55:52;;;;;;;0.3;0.3;;;;;;;21.08;60.59668;938.322;;;;
2020/09/02 09:58:17;;;;;;;0.2;0.2;;;;;;;20.94;60.66016;938.3178;;;;
2020/09/02 10:00:42;;;;;;;0.5;0.3;;;;;;;21.15;60.81738;938.2622;;;;
2020/09/02 10:03:08;;;;;;;0.5;0.4;;;;;;;21.31;59.98438;938.2473;;;;
2020/09/02 10:05:33;;;;;;;0.8;0.5;;;;;;;21.55;59.93555;938.2527;;;;
2020/09/02 10:07:58;;;;;;;0.8;0.5;;;;;;;21.31;59.02441;938.2992;;;;
2020/09/02 10:10:30;;;;;;;0.8;0.5;;;;;;;21.08;59.42773;938.3763;;;;
2020/09/02 10:12:55;;;;;;;2;0.7;;;;;;;21.1;60.08496;938.3812;;;;
2020/09/02 10:15:21;;;;;;;0.7;0.4;;;;;;;20.89;61.07422;938.397;;;;
2020/09/02 10:17:50;;;;;;;0.3;0.2;;;;;;;21.23;60.68848;938.4036;;;;
2020/09/02 10:20:14;;;;;;;0.4;0.3;;;;;;;21.11;58.89258;938.389;;;;
2020/09/02 10:22:40;;;;;;;0.4;0.3;;;;;;;21.27;59.82715;938.3959;;;;
2020/09/02 10:25:05;;;;;;;0.6;0.5;;;;;;;21.3;59.28223;938.361;;;;
2020/09/02 10:27:30;;;;;;;0.3;0.3;;;;;;;21.16;59.75391;938.3859;;;;
2020/09/02 10:29:57;;;;;;;1;0.3;;;;;;;20.89;60.61816;938.351;;;;
2020/09/02 10:32:25;;;;;;;0.7;0.5;;;;;;;20.91;60.39941;938.3389;;;;
2020/09/02 10:34:52;;;;;;;0.3;0.3;;;;;;;20.93;60.36523;938.3222;;;;
2020/09/02 10:37:17;;;;;;;0.5;0.4;;;;;;;20.88;60.81543;938.3861;;;;
2020/09/02 10:39:42;;;;;;;1.1;0.5;;;;;;;20.83;61.88379;938.3942;;;;
2020/09/02 10:42:07;;;;;;;0.3;0.3;;;;;;;20.97;59.75195;938.3235;;;;
2020/09/02 10:44:33;;;;;;;0.7;0.4;;;;;;;20.67;60.37793;938.3823;;;;
2020/09/02 10:46:58;;;;;;;0.4;0.3;;;;;;;20.44;60.55566;938.3918;;;;
2020/09/02 10:49:23;;;;;;;0.8;0.4;;;;;;;20.11;61.46875;938.498;;;;
2020/09/02 10:51:48;;;;;;;0.7;0.4;;;;;;;19.99;62.87402;938.5178;;;;
2020/09/02 10:54:13;;;;;;;0.7;0.5;;;;;;;20.1;61.11621;938.5427;;;;
2020/09/02 10:56:39;;;;;;;1;0.3;;;;;;;19.58;61.9541;938.5753;;;;
2020/09/02 10:59:04;;;;;;;1.1;0.3;;;;;;;18.95;65.14941;938.6429;;;;
2020/09/02 11:01:29;;;;;;;1.1;0.5;;;;;;;18.6;66.0625;938.6448;;;;
2020/09/02 11:03:55;;;;;;;0.8;0.6;;;;;;;18.62;67.88965;938.6404;;;;
2020/09/02 11:06:20;;;;;;;1.8;0.7;;;;;;;18.68;68.77148;938.6995;;;;
2020/09/02 11:08:45;;;;;;;1.7;0.6;;;;;;;18.45;71.36328;938.7012;;;;
2020/09/02 11:11:11;;;;;;;1.4;0.7;;;;;;;18.59;70.39746;938.683;;;;
2020/09/02 11:13:36;;;;;;;1;0.6;;;;;;;18.53;69.16797;938.6011;;;;
2020/09/02 11:16:14;;;;;;;0.4;0.4;;;;;;;18.63;70.87012;938.6738;;;;
2020/09/02 11:18:39;;;;;;;0.9;0.5;;;;;;;18.77;70.19238;938.6227;;;;
2020/09/02 11:21:06;;;;;;;0.9;0.5;;;;;;;19.36;69.18164;938.6011;;;;
2020/09/02 11:23:40;;;;;;;0.8;0.4;;;;;;;20.14;65.46289;938.5804;;;;
2020/09/02 11:26:05;;;;;;;0.6;0.5;;;;;;;21.05;64.02051;938.5747;;;;
2020/09/02 11:28:33;;;;;;;0.8;0.7;;;;;;;21.99;59.80762;938.6294;;;;
2020/09/02 11:30:58;;;;;;;0.9;0.7;;;;;;;22.42;56.56836;938.6819;;;;
2020/09/02 11:33:26;;;;;;;0.6;0.4;;;;;;;22.16;56.50098;938.6426;;;;
2020/09/02 11:35:51;;;;;;;0.5;0.3;;;;;;;21.94;56.35547;938.6328;;;;
2020/09/02 11:38:18;;;;;;;0.3;0.3;;;;;;;21.75;55.32324;938.6841;;;;
2020/09/02 11:40:51;;;;;;;1.2;0.7;;;;;;;21.19;56.3291;938.7025;;;;
2020/09/02 11:43:18;;;;;;;0.4;0.2;;;;;;;20.92;55.26758;938.6802;;;;
2020/09/02 11:45:43;;;;;;;0.4;0.4;;;;;;;20.79;55.99902;938.6743;;;;
2020/09/02 11:48:14;;;;;;;1.1;0.5;;;;;;;20.7;56.85254;938.6937;;;;
2020/09/02 11:50:40;;;;;;;0.4;0.4;;;;;;;20.13;58.64551;938.7078;;;;
2020/09/02 11:53:05;;;;;;;0.9;0.7;;;;;;;19.45;62.58789;938.7391;;;;
2020/09/02 11:55:30;;;;;;;0.5;0.4;;;;;;;19.23;63.39648;938.7826;;;;
2020/09/02 11:57:56;;;;;;;0.3;0.2;;;;;;;19.22;62.625;938.7964;;;;
2020/09/02 12:00:34;;;;;;;0.8;0.5;;;;;;;18.72;64.56738;938.8438;;;;
2020/09/02 12:03:02;;;;;;;0.5;0.4;;;;;;;17.77;68.91992;938.8538;;;;
2020/09/02 12:05:27;;;;;;;0.4;0.4;;;;;;;17.71;69.58496;938.9095;;;;
2020/09/02 12:07:54;;;;;;;1.3;0.4;;;;;;;17.42;69.77051;938.8783;;;;
2020/09/02 12:10:19;;;;;;;0.5;0.4;;;;;;;16.96;73.21973;938.9261;;;;
2020/09/02 12:12:47;;;;;;;1.3;1;;;;;;;17.03;73.75391;938.8851;;;;
2020/09/02 12:15:14;;;;;;;2.1;0.9;;;;;;;16.85;74.03613;938.9197;;;;
2020/09/02 12:17:42;;;;;;;0.8;0.8;;;;;;;16.68;74.59668;938.8918;;;;
2020/09/02 12:20:07;;;;;;;0.9;0.8;;;;;;;16.39;75.54199;938.9622;;;;
2020/09/02 12:22:35;;;;;;;1;0.8;;;;;;;16.32;75.40234;939.0305;;;;
2020/09/02 12:25:00;;;;;;;0.9;0.7;;;;;;;16.55;75.45605;938.9958;;;;
2020/09/02 12:27:25;;;;;;;0.9;0.6;;;;;;;16.75;75.94043;939.0566;;;;
2020/09/02 12:29:51;;;;;;;1.1;0.7;;;;;;;16.72;76.15625;939.0715;;;;
2020/09/02 12:32:15;;;;;;;1;0.8;;;;;;;16.83;75.12012;939.0623;;;;
2020/09/02 12:34:47;;;;;;;1.4;0.8;;;;;;;16.74;75.88086;939.0519;;;;
2020/09/02 12:37:11;;;;;;;1.7;0.9;;;;;;;16.86;76.00586;939.0708;;;;
2020/09/02 12:39:36;;;;;;;1.5;1;;;;;;;16.83;75.9209;939.0558;;;;
2020/09/02 12:42:04;;;;;;;1.4;0.8;;;;;;;16.96;76.65039;939.1233;;;;
2020/09/02 12:44:29;;;;;;;1.3;0.9;;;;;;;17;76.81836;939.0599;;;;
2020/09/02 12:46:58;;;;;;;2.6;1.5;;;;;;;17.11;77.91602;939.1319;;;;
2020/09/02 12:49:23;;;;;;;1.9;1.2;;;;;;;17.09;78.14258;939.1854;;;;
2020/09/02 12:51:50;;;;;;;1;0.9;;;;;;;16.74;78.47656;939.1749;;;;
2020/09/02 12:54:15;;;;;;;1.7;1.3;;;;;;;16.57;79.99609;939.2352;;;;
2020/09/02 12:56:50;;;;;;;3;1.4;;;;;;;16.53;79.63086;939.2019;;;;
2020/09/02 12:59:17;;;;;;;2.9;1.3;;;;;;;16.56;80.08887;939.2996;;;;
2020/09/02 13:01:42;;;;;;;1.6;1;;;;;;;16.46;80.02246;939.3145;;;;
2020/09/02 13:04:07;;;;;;;1.4;1;;;;;;;16.48;80.76855;939.3577;;;;
2020/09/02 13:06:57;;;;;;;1.7;1.1;;;;;;;16.54;80.12012;939.3625;;;;
2020/09/02 13:09:19;;;;;;;1.9;1.3;;;;;;;16.61;79.94629;939.3617;;;;
2020/09/02 13:11:44;;;;;;;2.4;1.1;;;;;;;16.69;79.96094;939.363;;;;
2020/09/02 13:14:09;;;;;;;2;1;;;;;;;16.61;80.88281;939.3006;;;;
2020/09/02 13:16:37;;;;;;;1.7;1.3;;;;;;;16.63;81.8584;939.2701;;;;
2020/09/02 13:19:02;;;;;;;2.1;1.3;;;;;;;16.82;80.35645;939.2643;;;;
2020/09/02 13:21:28;;;;;;;1.2;1.1;;;;;;;16.6;81.4248;939.2581;;;;
2020/09/02 13:23:53;;;;;;;2;1.2;;;;;;;16.75;82.50684;939.2336;;;;
2020/09/02 13:26:19;;;;;;;1.8;1.1;;;;;;;17.07;81.27051;939.3183;;;;
2020/09/02 13:28:44;;;;;;;4.1;1.4;;;;;;;17.53;79.97461;939.3194;;;;
2020/09/02 13:31:14;;;;;;;1.3;0.9;;;;;;;17.62;74.39648;939.3768;;;;
2020/09/02 13:33:39;;;;;;;0.9;0.7;;;;;;;18;75.13379;939.3109;;;;
2020/09/02 13:36:04;;;;;;;1.2;0.6;;;;;;;18.3;74.02441;939.3191;;;;
2020/09/02 13:38:29;;;;;;;0.4;0.4;;;;;;;18.57;70.94141;939.4085;;;;
2020/09/02 13:40:55;;;;;;;1.3;0.7;;;;;;;18.77;70.94043;939.4945;;;;
2020/09/02 13:43:20;;;;;;;1.3;0.7;;;;;;;18.86;72.39648;939.5036;;;;
2020/09/02 13:45:45;;;;;;;0.5;0.5;;;;;;;19.06;70.62402;939.4885;;;;
2020/09/02 13:48:13;;;;;;;0.6;0.5;;;;;;;19.26;70.35352;939.5037;;;;
2020/09/02 13:50:42;;;;;;;0.8;0.6;;;;;;;18.83;69.94824;939.4808;;;;
2020/09/02 13:53:07;;;;;;;0.9;0.6;;;;;;;18.76;70.05273;939.4585;;;;
2020/09/02 13:55:32;;;;;;;1.3;0.9;;;;;;;18.58;71.97754;939.451;;;;
2020/09/02 13:57:58;;;;;;;0.9;0.6;;;;;;;18.29;72.38281;939.4305;;;;
2020/09/02 18:10:13;;;;;;;1.2;0.8;;;;;;;16.1;78.02637;940.7502;;;;
2020/09/02 18:12:39;;;;;;;7;1.1;;;;;;;16.07;78.02148;940.8074;;;;
2020/09/02 18:15:04;;;;;;;1.1;0.7;;;;;;;16.07;78.11328;940.8387;;;;
2020/09/02 18:17:34;;;;;;;0.8;0.7;;;;;;;16.04;77.75977;940.8278;;;;
2020/09/02 18:20:00;;;;;;;1.7;1;;;;;;;15.83;78.55664;940.837;;;;
2020/09/02 18:22:24;;;;;;;0.5;0.5;;;;;;;15.76;78.70313;940.8547;;;;
2020/09/02 18:24:50;;;;;;;1.1;0.6;;;;;;;15.63;78.98145;940.8475;;;;
2020/09/02 18:27:15;;;;;;;0.7;0.6;;;;;;;15.63;78.32227;940.9117;;;;
2020/09/02 18:29:42;;;;;;;0.7;0.6;;;;;;;15.55;78.85254;940.9325;;;;
2020/09/02 18:32:10;;;;;;;0.8;0.4;;;;;;;15.46;78.9043;940.9955;;;;
2020/09/02 18:34:36;;;;;;;1.1;0.7;;;;;;;15.23;79.50977;941.0203;;;;
2020/09/02 18:37:05;;;;;;;2.1;1.3;;;;;;;15.05;79.85742;941.0616;;;;
2020/09/02 18:39:32;;;;;;;2.2;1.6;;;;;;;14.94;80.32227;941.1266;;;;
2020/09/02 18:41:57;;;;;;;1.9;1.2;;;;;;;14.98;79.60352;941.1064;;;;
2020/09/02 18:44:22;;;;;;;3.6;2.1;;;;;;;15;79.58398;941.1777;;;;
2020/09/02 18:46:48;;;;;;;3.7;2.6;;;;;;;15.08;79.27441;941.209;;;;
2020/09/02 18:49:13;;;;;;;2.6;1.9;;;;;;;15.02;78.79102;941.259;;;;
2020/09/02 18:51:39;;;;;;;3.8;1.8;;;;;;;14.85;80.04004;941.3658;;;;
2020/09/02 18:54:05;;;;;;;0.8;0.6;;;;;;;14.76;80.80762;941.3608;;;;
2020/09/02 18:56:30;;;;;;;1.6;1;;;;;;;14.83;80.15234;941.3594;;;;
2020/09/02 18:59:01;;;;;;;1.1;0.8;;;;;;;14.83;79.11328;941.3675;;;;
2020/09/02 19:01:31;;;;;;;1.7;1;;;;;;;14.61;79.15625;941.4545;;;;
2020/09/02 19:04:02;;;;;;;0.9;0.8;;;;;;;14.54;79.32715;941.5115;;;;
2020/09/02 19:06:27;;;;;;;0.9;0.6;;;;;;;14.57;79.34375;941.5211;;;;
2020/09/02 19:08:55;;;;;;;0.6;0.6;;;;;;;14.42;79.4541;941.5842;;;;
2020/09/02 19:11:25;;;;;;;0.6;0.4;;;;;;;14.48;79.55762;941.6238;;;;
2020/09/02 19:13:54;;;;;;;0.6;0.4;;;;;;;14.54;79.75391;941.6253;;;;
2020/09/02 19:16:18;;;;;;;1;0.7;;;;;;;14.58;78.1123;941.7367;;;;
2020/09/02 19:18:44;;;;;;;0.7;0.6;;;;;;;14.45;78.58496;941.7551;;;;
2020/09/02 19:21:08;;;;;;;0.4;0.3;;;;;;;14.19;80;941.8029;;;;
2020/09/02 19:23:34;;;;;;;0.4;0.4;;;;;;;14.27;79.87695;941.8394;;;;
2020/09/02 19:26:00;;;;;;;0.6;0.4;;;;;;;14.2;80.95703;941.8478;;;;
2020/09/02 19:28:29;;;;;;;0.7;0.6;;;;;;;14.23;80.62891;941.8809;;;;
2020/09/02 19:30:55;;;;;;;0.4;0.4;;;;;;;14.22;80.37305;941.945;;;;